sensor_id;sensor_type;location;lat;lon;timestamp;P1;durP1;ratioP1;P2;durP2;ratioP2
33184;SDS011;19550;42.872;25.494;2022-09-04T00:01:03;23.02;;;15.50;;
33184;SDS011;19550;42.872;25.494;2022-09-04T00:03:40;20.27;;;14.52;;
33184;SDS011;19550;42.872;25.494;2022-09-04T00:06:14;21.98;;;15.20;;
33184;SDS011;19550;42.872;25.494;2022-09-04T00:08:48;21.30;;;15.15;;
33184;SDS011;19550;42.872;25.494;2022-09-04T00:11:29;18.40;;;14.25;;
33184;SDS011;19550;42.872;25.494;2022-09-04T00:14:08;22.42;;;14.43;;
33184;SDS011;19550;42.872;25.494;2022-09-04T00:16:40;23.13;;;14.90;;
33184;SDS011;19550;42.872;25.494;2022-09-04T00:19:13;26.58;;;16.15;;
33184;SDS011;19550;42.872;25.494;2022-09-04T00:21:48;22.42;;;14.93;;
33184;SDS011;19550;42.872;25.494;2022-09-04T00:24:18;22.17;;;16.90;;
33184;SDS011;19550;42.872;25.494;2022-09-04T00:26:51;27.65;;;16.02;;
33184;SDS011;19550;42.872;25.494;2022-09-04T00:29:28;26.17;;;17.00;;
33184;SDS011;19550;42.872;25.494;2022-09-04T00:34:38;24.98;;;16.65;;
33184;SDS011;19550;42.872;25.494;2022-09-04T00:37:13;25.95;;;15.93;;
33184;SDS011;19550;42.872;25.494;2022-09-04T00:39:47;22.50;;;16.65;;
33184;SDS011;19550;42.872;25.494;2022-09-04T00:42:27;28.73;;;16.70;;
33184;SDS011;19550;42.872;25.494;2022-09-04T00:45:14;25.48;;;16.08;;
33184;SDS011;19550;42.872;25.494;2022-09-04T00:50:52;18.90;;;14.77;;
33184;SDS011;19550;42.872;25.494;2022-09-04T00:53:44;21.13;;;15.25;;
33184;SDS011;19550;42.872;25.494;2022-09-04T00:56:28;20.80;;;14.68;;
33184;SDS011;19550;42.872;25.494;2022-09-04T00:59:12;19.88;;;15.10;;
33184;SDS011;19550;42.872;25.494;2022-09-04T01:01:49;27.98;;;15.75;;
33184;SDS011;19550;42.872;25.494;2022-09-04T01:04:30;33.95;;;16.58;;
33184;SDS011;19550;42.872;25.494;2022-09-04T01:07:08;21.80;;;14.10;;
33184;SDS011;19550;42.872;25.494;2022-09-04T01:10:01;23.63;;;14.20;;
33184;SDS011;19550;42.872;25.494;2022-09-04T01:12:36;27.08;;;15.13;;
33184;SDS011;19550;42.872;25.494;2022-09-04T01:15:09;23.88;;;15.57;;
33184;SDS011;19550;42.872;25.494;2022-09-04T01:17:51;20.15;;;15.10;;
33184;SDS011;19550;42.872;25.494;2022-09-04T01:20:26;20.92;;;15.15;;
33184;SDS011;19550;42.872;25.494;2022-09-04T01:23:07;21.27;;;15.98;;
33184;SDS011;19550;42.872;25.494;2022-09-04T01:25:49;21.25;;;15.90;;
33184;SDS011;19550;42.872;25.494;2022-09-04T01:28:22;23.08;;;14.95;;
33184;SDS011;19550;42.872;25.494;2022-09-04T01:30:56;26.25;;;14.73;;
33184;SDS011;19550;42.872;25.494;2022-09-04T01:33:29;23.85;;;15.65;;
33184;SDS011;19550;42.872;25.494;2022-09-04T01:36:02;33.30;;;15.35;;
33184;SDS011;19550;42.872;25.494;2022-09-04T01:38:36;20.48;;;14.90;;
33184;SDS011;19550;42.872;25.494;2022-09-04T01:41:12;20.23;;;14.10;;
33184;SDS011;19550;42.872;25.494;2022-09-04T01:43:43;23.92;;;13.75;;
33184;SDS011;19550;42.872;25.494;2022-09-04T01:49:16;23.52;;;14.68;;
33184;SDS011;19550;42.872;25.494;2022-09-04T01:51:55;20.77;;;15.25;;
33184;SDS011;19550;42.872;25.494;2022-09-04T01:54:34;23.42;;;15.25;;
33184;SDS011;19550;42.872;25.494;2022-09-04T01:57:12;21.83;;;16.08;;
33184;SDS011;19550;42.872;25.494;2022-09-04T01:59:51;25.05;;;14.82;;
33184;SDS011;19550;42.872;25.494;2022-09-04T02:02:27;24.23;;;13.80;;
33184;SDS011;19550;42.872;25.494;2022-09-04T02:05:00;24.50;;;14.18;;
33184;SDS011;19550;42.872;25.494;2022-09-04T02:07:36;23.15;;;13.88;;
33184;SDS011;19550;42.872;25.494;2022-09-04T02:10:10;19.60;;;13.63;;
33184;SDS011;19550;42.872;25.494;2022-09-04T02:12:51;23.38;;;14.77;;
33184;SDS011;19550;42.872;25.494;2022-09-04T02:15:28;20.80;;;14.88;;
33184;SDS011;19550;42.872;25.494;2022-09-04T02:18:05;25.92;;;14.77;;
33184;SDS011;19550;42.872;25.494;2022-09-04T02:20:39;27.42;;;14.20;;
33184;SDS011;19550;42.872;25.494;2022-09-04T02:23:14;22.60;;;14.43;;
33184;SDS011;19550;42.872;25.494;2022-09-04T02:25:52;23.20;;;14.85;;
33184;SDS011;19550;42.872;25.494;2022-09-04T02:28:29;27.02;;;15.40;;
33184;SDS011;19550;42.872;25.494;2022-09-04T02:31:04;21.83;;;14.70;;
33184;SDS011;19550;42.872;25.494;2022-09-04T02:33:39;24.75;;;14.00;;
33184;SDS011;19550;42.872;25.494;2022-09-04T02:36:14;29.08;;;15.00;;
33184;SDS011;19550;42.872;25.494;2022-09-04T02:38:52;25.17;;;14.77;;
33184;SDS011;19550;42.872;25.494;2022-09-04T02:41:30;20.23;;;14.45;;
33184;SDS011;19550;42.872;25.494;2022-09-04T02:44:12;23.58;;;14.13;;
33184;SDS011;19550;42.872;25.494;2022-09-04T02:46:52;35.42;;;16.05;;
33184;SDS011;19550;42.872;25.494;2022-09-04T02:49:31;26.13;;;15.40;;
33184;SDS011;19550;42.872;25.494;2022-09-04T02:52:12;24.83;;;15.68;;
33184;SDS011;19550;42.872;25.494;2022-09-04T02:54:49;20.10;;;13.95;;
33184;SDS011;19550;42.872;25.494;2022-09-04T02:57:29;22.03;;;14.90;;
33184;SDS011;19550;42.872;25.494;2022-09-04T03:00:11;21.10;;;14.73;;
33184;SDS011;19550;42.872;25.494;2022-09-04T03:02:42;23.98;;;14.55;;
33184;SDS011;19550;42.872;25.494;2022-09-04T03:05:18;19.48;;;13.38;;
33184;SDS011;19550;42.872;25.494;2022-09-04T03:10:19;16.77;;;13.00;;
33184;SDS011;19550;42.872;25.494;2022-09-04T03:12:53;21.33;;;13.02;;
33184;SDS011;19550;42.872;25.494;2022-09-04T03:15:28;18.05;;;12.93;;
33184;SDS011;19550;42.872;25.494;2022-09-04T03:18:01;22.98;;;14.25;;
33184;SDS011;19550;42.872;25.494;2022-09-04T03:20:38;16.33;;;12.23;;
33184;SDS011;19550;42.872;25.494;2022-09-04T03:23:09;20.45;;;12.90;;
33184;SDS011;19550;42.872;25.494;2022-09-04T03:25:49;19.73;;;13.35;;
33184;SDS011;19550;42.872;25.494;2022-09-04T03:28:34;18.50;;;12.63;;
33184;SDS011;19550;42.872;25.494;2022-09-04T03:34:02;16.65;;;13.38;;
33184;SDS011;19550;42.872;25.494;2022-09-04T03:36:37;18.80;;;11.90;;
33184;SDS011;19550;42.872;25.494;2022-09-04T03:39:13;17.63;;;11.88;;
33184;SDS011;19550;42.872;25.494;2022-09-04T03:41:48;21.05;;;13.32;;
33184;SDS011;19550;42.872;25.494;2022-09-04T03:44:25;23.50;;;13.38;;
33184;SDS011;19550;42.872;25.494;2022-09-04T03:47:04;18.95;;;12.25;;
33184;SDS011;19550;42.872;25.494;2022-09-04T03:49:42;21.88;;;11.90;;
33184;SDS011;19550;42.872;25.494;2022-09-04T03:52:19;17.75;;;11.38;;
33184;SDS011;19550;42.872;25.494;2022-09-04T03:55:02;20.25;;;11.80;;
33184;SDS011;19550;42.872;25.494;2022-09-04T03:57:51;15.88;;;11.65;;
33184;SDS011;19550;42.872;25.494;2022-09-04T04:00:26;19.05;;;12.05;;
33184;SDS011;19550;42.872;25.494;2022-09-04T04:06:01;16.10;;;11.98;;
33184;SDS011;19550;42.872;25.494;2022-09-04T04:08:46;18.40;;;12.23;;
33184;SDS011;19550;42.872;25.494;2022-09-04T04:11:27;19.23;;;11.52;;
33184;SDS011;19550;42.872;25.494;2022-09-04T04:17:11;19.13;;;10.98;;
33184;SDS011;19550;42.872;25.494;2022-09-04T04:19:55;14.73;;;10.95;;
33184;SDS011;19550;42.872;25.494;2022-09-04T04:25:37;17.35;;;11.40;;
33184;SDS011;19550;42.872;25.494;2022-09-04T04:31:06;19.58;;;13.07;;
33184;SDS011;19550;42.872;25.494;2022-09-04T04:33:48;20.52;;;12.77;;
33184;SDS011;19550;42.872;25.494;2022-09-04T04:36:26;20.27;;;13.23;;
33184;SDS011;19550;42.872;25.494;2022-09-04T04:39:06;19.27;;;12.55;;
33184;SDS011;19550;42.872;25.494;2022-09-04T04:41:54;22.67;;;13.02;;
33184;SDS011;19550;42.872;25.494;2022-09-04T04:44:38;21.75;;;13.15;;
33184;SDS011;19550;42.872;25.494;2022-09-04T04:47:39;18.85;;;13.80;;
33184;SDS011;19550;42.872;25.494;2022-09-04T04:50:21;21.20;;;12.65;;
33184;SDS011;19550;42.872;25.494;2022-09-04T04:53:01;17.38;;;12.95;;
33184;SDS011;19550;42.872;25.494;2022-09-04T04:55:37;20.00;;;12.57;;
33184;SDS011;19550;42.872;25.494;2022-09-04T04:58:17;17.08;;;12.88;;
33184;SDS011;19550;42.872;25.494;2022-09-04T05:00:52;17.13;;;12.23;;
33184;SDS011;19550;42.872;25.494;2022-09-04T05:03:32;18.92;;;12.25;;
33184;SDS011;19550;42.872;25.494;2022-09-04T05:06:12;17.50;;;11.93;;
33184;SDS011;19550;42.872;25.494;2022-09-04T05:08:47;17.02;;;12.23;;
33184;SDS011;19550;42.872;25.494;2022-09-04T05:11:21;15.50;;;11.20;;
33184;SDS011;19550;42.872;25.494;2022-09-04T05:13:58;15.68;;;10.98;;
33184;SDS011;19550;42.872;25.494;2022-09-04T05:16:33;20.38;;;11.48;;
33184;SDS011;19550;42.872;25.494;2022-09-04T05:19:14;18.67;;;11.77;;
33184;SDS011;19550;42.872;25.494;2022-09-04T05:21:52;16.45;;;12.02;;
33184;SDS011;19550;42.872;25.494;2022-09-04T05:24:28;16.55;;;11.95;;
33184;SDS011;19550;42.872;25.494;2022-09-04T05:27:03;20.02;;;11.80;;
33184;SDS011;19550;42.872;25.494;2022-09-04T05:29:36;25.02;;;12.45;;
33184;SDS011;19550;42.872;25.494;2022-09-04T05:32:12;18.05;;;11.55;;
33184;SDS011;19550;42.872;25.494;2022-09-04T05:35:02;16.33;;;11.00;;
33184;SDS011;19550;42.872;25.494;2022-09-04T05:37:36;19.70;;;11.65;;
33184;SDS011;19550;42.872;25.494;2022-09-04T05:40:14;17.02;;;11.55;;
33184;SDS011;19550;42.872;25.494;2022-09-04T05:42:52;15.77;;;11.38;;
33184;SDS011;19550;42.872;25.494;2022-09-04T05:45:32;19.75;;;11.02;;
33184;SDS011;19550;42.872;25.494;2022-09-04T05:48:15;15.63;;;11.27;;
33184;SDS011;19550;42.872;25.494;2022-09-04T05:51:04;15.45;;;11.40;;
33184;SDS011;19550;42.872;25.494;2022-09-04T05:56:47;17.60;;;11.18;;
33184;SDS011;19550;42.872;25.494;2022-09-04T05:59:30;19.42;;;11.43;;
33184;SDS011;19550;42.872;25.494;2022-09-04T06:02:20;15.93;;;12.02;;
33184;SDS011;19550;42.872;25.494;2022-09-04T06:05:07;18.20;;;10.38;;
33184;SDS011;19550;42.872;25.494;2022-09-04T06:07:52;17.48;;;10.60;;
33184;SDS011;19550;42.872;25.494;2022-09-04T06:10:27;13.57;;;10.43;;
33184;SDS011;19550;42.872;25.494;2022-09-04T06:13:07;13.70;;;10.20;;
33184;SDS011;19550;42.872;25.494;2022-09-04T06:15:56;12.82;;;9.50;;
33184;SDS011;19550;42.872;25.494;2022-09-04T06:18:47;15.57;;;10.30;;
33184;SDS011;19550;42.872;25.494;2022-09-04T06:27:21;13.52;;;9.40;;
33184;SDS011;19550;42.872;25.494;2022-09-04T06:30:06;13.82;;;9.73;;
33184;SDS011;19550;42.872;25.494;2022-09-04T06:32:38;14.27;;;9.43;;
33184;SDS011;19550;42.872;25.494;2022-09-04T06:35:35;17.02;;;9.55;;
33184;SDS011;19550;42.872;25.494;2022-09-04T06:38:20;15.70;;;9.05;;
33184;SDS011;19550;42.872;25.494;2022-09-04T06:41:03;11.15;;;8.25;;
33184;SDS011;19550;42.872;25.494;2022-09-04T06:43:40;15.70;;;9.40;;
33184;SDS011;19550;42.872;25.494;2022-09-04T06:46:20;13.05;;;8.95;;
33184;SDS011;19550;42.872;25.494;2022-09-04T06:48:53;11.07;;;7.55;;
33184;SDS011;19550;42.872;25.494;2022-09-04T06:51:42;11.27;;;8.40;;
33184;SDS011;19550;42.872;25.494;2022-09-04T06:54:20;16.48;;;9.38;;
33184;SDS011;19550;42.872;25.494;2022-09-04T06:57:04;16.73;;;8.45;;
33184;SDS011;19550;42.872;25.494;2022-09-04T06:59:47;9.65;;;7.78;;
33184;SDS011;19550;42.872;25.494;2022-09-04T07:02:34;9.38;;;7.40;;
33184;SDS011;19550;42.872;25.494;2022-09-04T07:05:23;11.23;;;7.80;;
33184;SDS011;19550;42.872;25.494;2022-09-04T07:08:01;12.15;;;8.02;;
33184;SDS011;19550;42.872;25.494;2022-09-04T07:10:35;9.85;;;8.00;;
33184;SDS011;19550;42.872;25.494;2022-09-04T07:13:15;10.20;;;7.80;;
33184;SDS011;19550;42.872;25.494;2022-09-04T07:16:18;9.75;;;7.03;;
33184;SDS011;19550;42.872;25.494;2022-09-04T07:19:04;11.68;;;7.97;;
33184;SDS011;19550;42.872;25.494;2022-09-04T07:21:47;8.18;;;6.80;;
33184;SDS011;19550;42.872;25.494;2022-09-04T07:27:25;12.52;;;7.38;;
33184;SDS011;19550;42.872;25.494;2022-09-04T07:30:00;9.63;;;6.07;;
33184;SDS011;19550;42.872;25.494;2022-09-04T07:32:33;8.65;;;6.50;;
33184;SDS011;19550;42.872;25.494;2022-09-04T07:35:07;9.15;;;6.70;;
33184;SDS011;19550;42.872;25.494;2022-09-04T07:37:41;6.65;;;5.85;;
33184;SDS011;19550;42.872;25.494;2022-09-04T07:40:13;8.00;;;5.82;;
33184;SDS011;19550;42.872;25.494;2022-09-04T07:42:45;6.50;;;5.45;;
33184;SDS011;19550;42.872;25.494;2022-09-04T07:45:21;7.15;;;5.93;;
33184;SDS011;19550;42.872;25.494;2022-09-04T07:47:58;5.80;;;5.13;;
33184;SDS011;19550;42.872;25.494;2022-09-04T07:50:32;6.60;;;5.90;;
33184;SDS011;19550;42.872;25.494;2022-09-04T07:53:13;6.55;;;5.55;;
33184;SDS011;19550;42.872;25.494;2022-09-04T07:55:55;7.75;;;4.97;;
33184;SDS011;19550;42.872;25.494;2022-09-04T07:58:29;6.05;;;4.78;;
33184;SDS011;19550;42.872;25.494;2022-09-04T08:01:32;6.80;;;5.53;;
33184;SDS011;19550;42.872;25.494;2022-09-04T08:04:26;10.10;;;5.90;;
33184;SDS011;19550;42.872;25.494;2022-09-04T08:07:13;10.32;;;7.20;;
33184;SDS011;19550;42.872;25.494;2022-09-04T08:09:55;12.25;;;8.95;;
33184;SDS011;19550;42.872;25.494;2022-09-04T08:12:55;7.70;;;5.75;;
33184;SDS011;19550;42.872;25.494;2022-09-04T08:15:40;7.25;;;6.38;;
33184;SDS011;19550;42.872;25.494;2022-09-04T08:18:22;7.85;;;6.15;;
33184;SDS011;19550;42.872;25.494;2022-09-04T08:21:07;7.40;;;6.05;;
33184;SDS011;19550;42.872;25.494;2022-09-04T08:26:50;7.25;;;6.43;;
33184;SDS011;19550;42.872;25.494;2022-09-04T08:29:35;10.40;;;7.30;;
33184;SDS011;19550;42.872;25.494;2022-09-04T08:32:31;11.05;;;6.80;;
33184;SDS011;19550;42.872;25.494;2022-09-04T08:35:16;7.47;;;6.30;;
33184;SDS011;19550;42.872;25.494;2022-09-04T08:37:55;8.05;;;6.47;;
33184;SDS011;19550;42.872;25.494;2022-09-04T08:44:01;6.40;;;5.73;;
33184;SDS011;19550;42.872;25.494;2022-09-04T08:46:55;7.20;;;5.95;;
33184;SDS011;19550;42.872;25.494;2022-09-04T08:56:08;9.30;;;5.88;;
33184;SDS011;19550;42.872;25.494;2022-09-04T08:59:03;13.32;;;6.70;;
33184;SDS011;19550;42.872;25.494;2022-09-04T09:05:16;7.43;;;5.93;;
33184;SDS011;19550;42.872;25.494;2022-09-04T09:08:05;9.20;;;6.97;;
33184;SDS011;19550;42.872;25.494;2022-09-04T09:14:04;8.88;;;5.03;;
33184;SDS011;19550;42.872;25.494;2022-09-04T09:16:52;6.25;;;5.05;;
33184;SDS011;19550;42.872;25.494;2022-09-04T09:19:40;6.47;;;4.55;;
33184;SDS011;19550;42.872;25.494;2022-09-04T09:22:09;5.60;;;4.85;;
33184;SDS011;19550;42.872;25.494;2022-09-04T09:31:16;6.75;;;4.78;;
33184;SDS011;19550;42.872;25.494;2022-09-04T09:34:20;6.80;;;4.90;;
33184;SDS011;19550;42.872;25.494;2022-09-04T09:37:27;6.40;;;5.28;;
33184;SDS011;19550;42.872;25.494;2022-09-04T09:40:24;4.97;;;4.47;;
33184;SDS011;19550;42.872;25.494;2022-09-04T09:43:09;6.30;;;4.32;;
33184;SDS011;19550;42.872;25.494;2022-09-04T09:49:17;6.07;;;4.68;;
33184;SDS011;19550;42.872;25.494;2022-09-04T09:52:21;5.40;;;4.82;;
33184;SDS011;19550;42.872;25.494;2022-09-04T09:55:11;5.10;;;4.60;;
33184;SDS011;19550;42.872;25.494;2022-09-04T10:04:28;5.13;;;4.30;;
33184;SDS011;19550;42.872;25.494;2022-09-04T10:07:30;5.93;;;4.85;;
33184;SDS011;19550;42.872;25.494;2022-09-04T10:10:29;5.32;;;4.80;;
33184;SDS011;19550;42.872;25.494;2022-09-04T10:19:23;6.63;;;4.50;;
33184;SDS011;19550;42.872;25.494;2022-09-04T10:25:31;4.68;;;4.18;;
33184;SDS011;19550;42.872;25.494;2022-09-04T10:28:38;6.68;;;4.57;;
33184;SDS011;19550;42.872;25.494;2022-09-04T10:34:38;5.10;;;4.32;;
33184;SDS011;19550;42.872;25.494;2022-09-04T10:37:24;7.03;;;3.92;;
33184;SDS011;19550;42.872;25.494;2022-09-04T10:40:07;5.40;;;4.20;;
33184;SDS011;19550;42.872;25.494;2022-09-04T10:43:02;4.18;;;3.67;;
33184;SDS011;19550;42.872;25.494;2022-09-04T10:45:44;5.55;;;3.63;;
33184;SDS011;19550;42.872;25.494;2022-09-04T10:48:23;5.40;;;3.65;;
33184;SDS011;19550;42.872;25.494;2022-09-04T10:54:20;4.50;;;3.97;;
33184;SDS011;19550;42.872;25.494;2022-09-04T10:57:19;4.40;;;4.00;;
33184;SDS011;19550;42.872;25.494;2022-09-04T11:00:00;5.07;;;3.17;;
33184;SDS011;19550;42.872;25.494;2022-09-04T11:02:38;5.60;;;3.60;;
33184;SDS011;19550;42.872;25.494;2022-09-04T11:05:36;7.97;;;5.60;;
33184;SDS011;19550;42.872;25.494;2022-09-04T11:08:22;8.52;;;5.70;;
33184;SDS011;19550;42.872;25.494;2022-09-04T11:11:11;5.43;;;4.93;;
33184;SDS011;19550;42.872;25.494;2022-09-04T11:17:05;4.93;;;3.97;;
33184;SDS011;19550;42.872;25.494;2022-09-04T11:22:59;4.20;;;3.20;;
33184;SDS011;19550;42.872;25.494;2022-09-04T11:28:56;4.05;;;3.65;;
33184;SDS011;19550;42.872;25.494;2022-09-04T11:31:49;5.63;;;4.43;;
33184;SDS011;19550;42.872;25.494;2022-09-04T11:34:45;5.35;;;3.60;;
33184;SDS011;19550;42.872;25.494;2022-09-04T11:37:47;4.22;;;3.50;;
33184;SDS011;19550;42.872;25.494;2022-09-04T11:43:34;5.32;;;3.70;;
33184;SDS011;19550;42.872;25.494;2022-09-04T11:46:20;5.72;;;3.13;;
33184;SDS011;19550;42.872;25.494;2022-09-04T11:49:23;5.13;;;4.22;;
33184;SDS011;19550;42.872;25.494;2022-09-04T11:54:57;3.95;;;3.55;;
33184;SDS011;19550;42.872;25.494;2022-09-04T11:57:51;5.45;;;3.50;;
33184;SDS011;19550;42.872;25.494;2022-09-04T12:00:39;4.72;;;4.25;;
33184;SDS011;19550;42.872;25.494;2022-09-04T12:06:35;4.18;;;3.40;;
33184;SDS011;19550;42.872;25.494;2022-09-04T12:15:00;4.03;;;3.17;;
33184;SDS011;19550;42.872;25.494;2022-09-04T12:17:54;5.53;;;3.17;;
33184;SDS011;19550;42.872;25.494;2022-09-04T12:20:38;3.78;;;3.20;;
33184;SDS011;19550;42.872;25.494;2022-09-04T12:26:38;6.18;;;3.13;;
33184;SDS011;19550;42.872;25.494;2022-09-04T12:32:32;4.50;;;2.92;;
33184;SDS011;19550;42.872;25.494;2022-09-04T12:35:35;2.90;;;2.45;;
33184;SDS011;19550;42.872;25.494;2022-09-04T12:41:31;3.97;;;2.63;;
33184;SDS011;19550;42.872;25.494;2022-09-04T12:44:06;5.35;;;2.67;;
33184;SDS011;19550;42.872;25.494;2022-09-04T12:46:48;4.47;;;2.95;;
33184;SDS011;19550;42.872;25.494;2022-09-04T12:55:52;2.53;;;2.30;;
33184;SDS011;19550;42.872;25.494;2022-09-04T12:58:28;4.70;;;2.88;;
33184;SDS011;19550;42.872;25.494;2022-09-04T13:01:09;3.25;;;2.67;;
33184;SDS011;19550;42.872;25.494;2022-09-04T13:03:43;2.80;;;2.60;;
33184;SDS011;19550;42.872;25.494;2022-09-04T13:06:20;4.60;;;2.47;;
33184;SDS011;19550;42.872;25.494;2022-09-04T13:09:00;2.58;;;2.00;;
33184;SDS011;19550;42.872;25.494;2022-09-04T13:11:45;4.60;;;2.08;;
33184;SDS011;19550;42.872;25.494;2022-09-04T13:14:28;3.08;;;2.13;;
33184;SDS011;19550;42.872;25.494;2022-09-04T13:17:17;2.80;;;2.45;;
33184;SDS011;19550;42.872;25.494;2022-09-04T13:19:54;2.30;;;2.10;;
33184;SDS011;19550;42.872;25.494;2022-09-04T13:22:31;3.58;;;2.25;;
33184;SDS011;19550;42.872;25.494;2022-09-04T13:25:21;2.50;;;2.30;;
33184;SDS011;19550;42.872;25.494;2022-09-04T13:28:04;2.25;;;1.85;;
33184;SDS011;19550;42.872;25.494;2022-09-04T13:30:44;2.35;;;2.15;;
33184;SDS011;19550;42.872;25.494;2022-09-04T13:33:26;3.03;;;2.15;;
33184;SDS011;19550;42.872;25.494;2022-09-04T13:36:10;3.00;;;2.10;;
33184;SDS011;19550;42.872;25.494;2022-09-04T13:38:59;4.85;;;1.90;;
33184;SDS011;19550;42.872;25.494;2022-09-04T13:42:00;3.28;;;2.10;;
33184;SDS011;19550;42.872;25.494;2022-09-04T13:44:48;2.50;;;2.28;;
33184;SDS011;19550;42.872;25.494;2022-09-04T13:47:24;2.40;;;2.00;;
33184;SDS011;19550;42.872;25.494;2022-09-04T13:49:54;6.10;;;2.63;;
33184;SDS011;19550;42.872;25.494;2022-09-04T13:52:28;3.08;;;2.10;;
33184;SDS011;19550;42.872;25.494;2022-09-04T13:55:00;2.80;;;2.05;;
33184;SDS011;19550;42.872;25.494;2022-09-04T13:57:31;1.77;;;1.67;;
33184;SDS011;19550;42.872;25.494;2022-09-04T14:00:06;3.42;;;2.10;;
33184;SDS011;19550;42.872;25.494;2022-09-04T14:02:36;3.08;;;2.28;;
33184;SDS011;19550;42.872;25.494;2022-09-04T14:05:08;5.55;;;3.63;;
33184;SDS011;19550;42.872;25.494;2022-09-04T14:07:39;2.53;;;2.33;;
33184;SDS011;19550;42.872;25.494;2022-09-04T14:10:09;3.15;;;2.60;;
33184;SDS011;19550;42.872;25.494;2022-09-04T14:12:45;3.05;;;2.75;;
33184;SDS011;19550;42.872;25.494;2022-09-04T14:15:35;3.25;;;2.72;;
33184;SDS011;19550;42.872;25.494;2022-09-04T14:18:20;3.10;;;2.80;;
33184;SDS011;19550;42.872;25.494;2022-09-04T14:20:58;3.42;;;2.50;;
33184;SDS011;19550;42.872;25.494;2022-09-04T14:23:36;3.13;;;2.80;;
33184;SDS011;19550;42.872;25.494;2022-09-04T14:26:16;3.10;;;2.80;;
33184;SDS011;19550;42.872;25.494;2022-09-04T14:28:51;5.45;;;2.33;;
33184;SDS011;19550;42.872;25.494;2022-09-04T14:31:29;4.10;;;2.53;;
33184;SDS011;19550;42.872;25.494;2022-09-04T14:34:03;5.50;;;3.15;;
33184;SDS011;19550;42.872;25.494;2022-09-04T14:36:41;12.02;;;2.60;;
33184;SDS011;19550;42.872;25.494;2022-09-04T14:39:18;2.85;;;2.53;;
33184;SDS011;19550;42.872;25.494;2022-09-04T14:44:48;6.72;;;2.83;;
33184;SDS011;19550;42.872;25.494;2022-09-04T14:47:30;6.15;;;2.83;;
33184;SDS011;19550;42.872;25.494;2022-09-04T14:50:06;10.60;;;3.38;;
33184;SDS011;19550;42.872;25.494;2022-09-04T14:52:37;5.00;;;2.58;;
33184;SDS011;19550;42.872;25.494;2022-09-04T14:55:07;4.65;;;3.25;;
33184;SDS011;19550;42.872;25.494;2022-09-04T14:57:41;3.13;;;2.80;;
33184;SDS011;19550;42.872;25.494;2022-09-04T15:00:15;4.30;;;3.25;;
33184;SDS011;19550;42.872;25.494;2022-09-04T15:02:46;6.68;;;4.22;;
33184;SDS011;19550;42.872;25.494;2022-09-04T15:05:21;6.25;;;4.30;;
33184;SDS011;19550;42.872;25.494;2022-09-04T15:07:51;6.32;;;4.30;;
33184;SDS011;19550;42.872;25.494;2022-09-04T15:10:33;5.75;;;4.53;;
33184;SDS011;19550;42.872;25.494;2022-09-04T15:13:22;5.53;;;4.68;;
33184;SDS011;19550;42.872;25.494;2022-09-04T15:16:06;10.02;;;5.32;;
33184;SDS011;19550;42.872;25.494;2022-09-04T15:18:47;5.30;;;4.80;;
33184;SDS011;19550;42.872;25.494;2022-09-04T15:21:21;4.78;;;3.90;;
33184;SDS011;19550;42.872;25.494;2022-09-04T15:23:59;5.25;;;4.55;;
33184;SDS011;19550;42.872;25.494;2022-09-04T15:26:35;5.70;;;4.45;;
33184;SDS011;19550;42.872;25.494;2022-09-04T15:29:07;5.85;;;4.50;;
33184;SDS011;19550;42.872;25.494;2022-09-04T15:31:42;8.75;;;4.68;;
33184;SDS011;19550;42.872;25.494;2022-09-04T15:34:11;5.18;;;4.15;;
33184;SDS011;19550;42.872;25.494;2022-09-04T15:36:46;5.07;;;4.38;;
33184;SDS011;19550;42.872;25.494;2022-09-04T15:39:14;4.90;;;4.30;;
33184;SDS011;19550;42.872;25.494;2022-09-04T15:41:54;6.15;;;4.85;;
33184;SDS011;19550;42.872;25.494;2022-09-04T15:44:22;6.97;;;4.85;;
33184;SDS011;19550;42.872;25.494;2022-09-04T15:46:56;5.57;;;4.80;;
33184;SDS011;19550;42.872;25.494;2022-09-04T15:49:37;6.53;;;5.22;;
33184;SDS011;19550;42.872;25.494;2022-09-04T15:52:10;5.53;;;4.95;;
33184;SDS011;19550;42.872;25.494;2022-09-04T15:54:52;5.65;;;5.05;;
33184;SDS011;19550;42.872;25.494;2022-09-04T15:57:27;7.35;;;5.15;;
33184;SDS011;19550;42.872;25.494;2022-09-04T16:00:01;9.00;;;4.90;;
33184;SDS011;19550;42.872;25.494;2022-09-04T16:02:36;6.65;;;5.30;;
33184;SDS011;19550;42.872;25.494;2022-09-04T16:05:16;6.90;;;5.60;;
33184;SDS011;19550;42.872;25.494;2022-09-04T16:07:51;6.18;;;5.22;;
33184;SDS011;19550;42.872;25.494;2022-09-04T16:10:28;6.78;;;5.30;;
33184;SDS011;19550;42.872;25.494;2022-09-04T16:13:09;10.60;;;5.07;;
33184;SDS011;19550;42.872;25.494;2022-09-04T16:15:57;9.77;;;5.43;;
33184;SDS011;19550;42.872;25.494;2022-09-04T16:18:37;9.52;;;5.80;;
33184;SDS011;19550;42.872;25.494;2022-09-04T16:21:15;8.20;;;5.40;;
33184;SDS011;19550;42.872;25.494;2022-09-04T16:23:49;14.57;;;6.47;;
33184;SDS011;19550;42.872;25.494;2022-09-04T16:26:18;9.52;;;5.63;;
33184;SDS011;19550;42.872;25.494;2022-09-04T16:28:52;9.10;;;5.47;;
33184;SDS011;19550;42.872;25.494;2022-09-04T16:31:24;8.45;;;6.07;;
33184;SDS011;19550;42.872;25.494;2022-09-04T16:33:56;7.72;;;5.43;;
33184;SDS011;19550;42.872;25.494;2022-09-04T16:39:03;9.35;;;5.60;;
33184;SDS011;19550;42.872;25.494;2022-09-04T16:41:39;9.80;;;5.40;;
33184;SDS011;19550;42.872;25.494;2022-09-04T16:44:16;9.88;;;5.93;;
33184;SDS011;19550;42.872;25.494;2022-09-04T16:46:49;7.68;;;6.20;;
33184;SDS011;19550;42.872;25.494;2022-09-04T16:49:28;13.60;;;5.75;;
33184;SDS011;19550;42.872;25.494;2022-09-04T16:52:18;13.98;;;5.80;;
33184;SDS011;19550;42.872;25.494;2022-09-04T16:55:00;9.88;;;5.82;;
33184;SDS011;19550;42.872;25.494;2022-09-04T16:57:33;10.63;;;6.22;;
33184;SDS011;19550;42.872;25.494;2022-09-04T17:00:07;13.10;;;6.38;;
33184;SDS011;19550;42.872;25.494;2022-09-04T17:05:09;8.75;;;6.28;;
33184;SDS011;19550;42.872;25.494;2022-09-04T17:07:45;11.38;;;5.95;;
33184;SDS011;19550;42.872;25.494;2022-09-04T17:10:23;13.30;;;5.95;;
33184;SDS011;19550;42.872;25.494;2022-09-04T17:12:58;11.93;;;6.00;;
33184;SDS011;19550;42.872;25.494;2022-09-04T17:15:31;8.52;;;5.90;;
33184;SDS011;19550;42.872;25.494;2022-09-04T17:18:06;11.18;;;5.78;;
33184;SDS011;19550;42.872;25.494;2022-09-04T17:20:34;17.98;;;6.35;;
33184;SDS011;19550;42.872;25.494;2022-09-04T17:23:10;11.23;;;6.00;;
33184;SDS011;19550;42.872;25.494;2022-09-04T17:25:44;15.57;;;5.97;;
33184;SDS011;19550;42.872;25.494;2022-09-04T17:28:27;12.25;;;6.18;;
33184;SDS011;19550;42.872;25.494;2022-09-04T17:31:07;7.90;;;5.82;;
33184;SDS011;19550;42.872;25.494;2022-09-04T17:33:40;11.02;;;5.78;;
33184;SDS011;19550;42.872;25.494;2022-09-04T17:36:15;10.43;;;5.80;;
33184;SDS011;19550;42.872;25.494;2022-09-04T17:38:47;10.40;;;6.32;;
33184;SDS011;19550;42.872;25.494;2022-09-04T17:41:23;13.00;;;6.05;;
33184;SDS011;19550;42.872;25.494;2022-09-04T17:46:59;11.70;;;7.88;;
33184;SDS011;19550;42.872;25.494;2022-09-04T17:49:39;8.18;;;6.20;;
33184;SDS011;19550;42.872;25.494;2022-09-04T17:52:11;14.32;;;7.15;;
33184;SDS011;19550;42.872;25.494;2022-09-04T17:54:49;11.52;;;5.75;;
33184;SDS011;19550;42.872;25.494;2022-09-04T17:57:19;9.73;;;5.65;;
33184;SDS011;19550;42.872;25.494;2022-09-04T17:59:53;9.32;;;5.65;;